sensor_id;sensor_type;location;lat;lon;timestamp;P1;durP1;ratioP1;P2;durP2;ratioP2
1471;SDS011;963;42.644;23.336;2022-08-19T00:01:43;6.60;;;5.67;;
1471;SDS011;963;42.644;23.336;2022-08-19T00:04:11;6.80;;;5.00;;
1471;SDS011;963;42.644;23.336;2022-08-19T00:06:39;9.13;;;5.97;;
1471;SDS011;963;42.644;23.336;2022-08-19T00:09:07;6.10;;;5.37;;
1471;SDS011;963;42.644;23.336;2022-08-19T00:11:35;7.70;;;5.80;;
1471;SDS011;963;42.644;23.336;2022-08-19T00:14:01;7.10;;;5.30;;
1471;SDS011;963;42.644;23.336;2022-08-19T00:16:27;10.63;;;5.70;;
1471;SDS011;963;42.644;23.336;2022-08-19T00:18:53;6.77;;;5.40;;
1471;SDS011;963;42.644;23.336;2022-08-19T00:21:20;6.97;;;5.90;;
1471;SDS011;963;42.644;23.336;2022-08-19T00:23:46;6.83;;;5.70;;
1471;SDS011;963;42.644;23.336;2022-08-19T00:26:11;7.27;;;6.50;;
1471;SDS011;963;42.644;23.336;2022-08-19T00:28:37;7.70;;;5.70;;
1471;SDS011;963;42.644;23.336;2022-08-19T00:31:03;6.10;;;5.50;;
1471;SDS011;963;42.644;23.336;2022-08-19T00:33:30;6.37;;;5.77;;
1471;SDS011;963;42.644;23.336;2022-08-19T00:35:59;6.97;;;6.00;;
1471;SDS011;963;42.644;23.336;2022-08-19T00:38:26;7.00;;;5.77;;
1471;SDS011;963;42.644;23.336;2022-08-19T00:40:52;6.90;;;5.53;;
1471;SDS011;963;42.644;23.336;2022-08-19T00:43:19;6.00;;;5.40;;
1471;SDS011;963;42.644;23.336;2022-08-19T00:45:46;6.17;;;5.47;;
1471;SDS011;963;42.644;23.336;2022-08-19T00:48:12;6.00;;;5.33;;
1471;SDS011;963;42.644;23.336;2022-08-19T00:50:39;6.17;;;5.60;;
1471;SDS011;963;42.644;23.336;2022-08-19T00:53:08;7.93;;;5.93;;
1471;SDS011;963;42.644;23.336;2022-08-19T00:55:40;7.27;;;5.90;;
1471;SDS011;963;42.644;23.336;2022-08-19T00:58:10;9.33;;;5.80;;
1471;SDS011;963;42.644;23.336;2022-08-19T01:00:38;6.33;;;5.40;;
1471;SDS011;963;42.644;23.336;2022-08-19T01:03:08;5.67;;;5.17;;
1471;SDS011;963;42.644;23.336;2022-08-19T01:05:36;7.20;;;6.10;;
1471;SDS011;963;42.644;23.336;2022-08-19T01:08:04;6.97;;;5.30;;
1471;SDS011;963;42.644;23.336;2022-08-19T01:10:32;9.27;;;6.27;;
1471;SDS011;963;42.644;23.336;2022-08-19T01:13:01;7.00;;;5.20;;
1471;SDS011;963;42.644;23.336;2022-08-19T01:15:30;12.10;;;6.30;;
1471;SDS011;963;42.644;23.336;2022-08-19T01:18:00;7.20;;;5.50;;
1471;SDS011;963;42.644;23.336;2022-08-19T01:20:29;7.93;;;6.60;;
1471;SDS011;963;42.644;23.336;2022-08-19T01:22:56;8.40;;;6.43;;
1471;SDS011;963;42.644;23.336;2022-08-19T01:25:28;8.10;;;6.27;;
1471;SDS011;963;42.644;23.336;2022-08-19T01:27:57;10.43;;;6.53;;
1471;SDS011;963;42.644;23.336;2022-08-19T01:30:28;7.80;;;7.00;;
1471;SDS011;963;42.644;23.336;2022-08-19T01:32:55;13.67;;;6.90;;
1471;SDS011;963;42.644;23.336;2022-08-19T01:35:22;7.70;;;6.30;;
1471;SDS011;963;42.644;23.336;2022-08-19T01:37:59;10.57;;;7.27;;
1471;SDS011;963;42.644;23.336;2022-08-19T01:40:28;10.10;;;7.00;;
1471;SDS011;963;42.644;23.336;2022-08-19T01:42:55;9.90;;;7.40;;
1471;SDS011;963;42.644;23.336;2022-08-19T01:45:22;10.23;;;7.40;;
1471;SDS011;963;42.644;23.336;2022-08-19T01:47:49;7.77;;;6.93;;
1471;SDS011;963;42.644;23.336;2022-08-19T01:50:14;7.33;;;6.40;;
1471;SDS011;963;42.644;23.336;2022-08-19T01:52:40;6.87;;;5.70;;
1471;SDS011;963;42.644;23.336;2022-08-19T01:55:08;7.60;;;6.00;;
1471;SDS011;963;42.644;23.336;2022-08-19T01:57:37;8.17;;;6.10;;
1471;SDS011;963;42.644;23.336;2022-08-19T02:00:05;6.67;;;6.07;;
1471;SDS011;963;42.644;23.336;2022-08-19T02:02:33;9.80;;;6.40;;
1471;SDS011;963;42.644;23.336;2022-08-19T02:04:59;7.00;;;6.30;;
1471;SDS011;963;42.644;23.336;2022-08-19T02:07:24;7.40;;;6.03;;
1471;SDS011;963;42.644;23.336;2022-08-19T02:09:50;8.20;;;6.50;;
1471;SDS011;963;42.644;23.336;2022-08-19T02:12:15;7.37;;;6.63;;
1471;SDS011;963;42.644;23.336;2022-08-19T02:14:41;7.37;;;6.27;;
1471;SDS011;963;42.644;23.336;2022-08-19T02:17:07;7.83;;;5.50;;
1471;SDS011;963;42.644;23.336;2022-08-19T02:19:32;7.70;;;6.57;;
1471;SDS011;963;42.644;23.336;2022-08-19T02:21:58;6.60;;;5.80;;
1471;SDS011;963;42.644;23.336;2022-08-19T02:24:25;7.80;;;6.47;;
1471;SDS011;963;42.644;23.336;2022-08-19T02:26:51;7.67;;;6.77;;
1471;SDS011;963;42.644;23.336;2022-08-19T02:29:16;7.70;;;6.17;;
1471;SDS011;963;42.644;23.336;2022-08-19T02:31:42;13.93;;;8.17;;
1471;SDS011;963;42.644;23.336;2022-08-19T02:34:07;7.90;;;6.37;;
1471;SDS011;963;42.644;23.336;2022-08-19T02:36:33;7.80;;;6.73;;
1471;SDS011;963;42.644;23.336;2022-08-19T02:38:59;8.90;;;7.33;;
1471;SDS011;963;42.644;23.336;2022-08-19T02:41:26;8.10;;;7.40;;
1471;SDS011;963;42.644;23.336;2022-08-19T02:43:57;8.53;;;7.60;;
1471;SDS011;963;42.644;23.336;2022-08-19T02:46:26;10.33;;;7.60;;
1471;SDS011;963;42.644;23.336;2022-08-19T02:48:56;8.27;;;7.37;;
1471;SDS011;963;42.644;23.336;2022-08-19T02:51:27;8.80;;;7.40;;
1471;SDS011;963;42.644;23.336;2022-08-19T02:53:55;8.23;;;7.43;;
1471;SDS011;963;42.644;23.336;2022-08-19T02:56:21;8.03;;;7.23;;
1471;SDS011;963;42.644;23.336;2022-08-19T02:58:49;12.53;;;8.03;;
1471;SDS011;963;42.644;23.336;2022-08-19T03:03:52;9.30;;;8.17;;
1471;SDS011;963;42.644;23.336;2022-08-19T03:06:18;8.27;;;7.47;;
1471;SDS011;963;42.644;23.336;2022-08-19T03:08:45;8.70;;;7.53;;
1471;SDS011;963;42.644;23.336;2022-08-19T03:11:12;10.73;;;8.40;;
1471;SDS011;963;42.644;23.336;2022-08-19T03:13:39;8.80;;;7.47;;
1471;SDS011;963;42.644;23.336;2022-08-19T03:16:04;9.27;;;7.20;;
1471;SDS011;963;42.644;23.336;2022-08-19T03:18:30;7.90;;;7.10;;
1471;SDS011;963;42.644;23.336;2022-08-19T03:20:56;8.07;;;7.27;;
1471;SDS011;963;42.644;23.336;2022-08-19T03:23:22;9.70;;;6.90;;
1471;SDS011;963;42.644;23.336;2022-08-19T03:25:49;8.53;;;6.83;;
1471;SDS011;963;42.644;23.336;2022-08-19T03:28:16;8.03;;;7.23;;
1471;SDS011;963;42.644;23.336;2022-08-19T03:30:42;7.63;;;6.87;;
1471;SDS011;963;42.644;23.336;2022-08-19T03:33:21;8.47;;;7.23;;
1471;SDS011;963;42.644;23.336;2022-08-19T03:35:47;8.70;;;7.40;;
1471;SDS011;963;42.644;23.336;2022-08-19T03:38:23;8.77;;;7.30;;
1471;SDS011;963;42.644;23.336;2022-08-19T03:40:49;8.23;;;6.93;;
1471;SDS011;963;42.644;23.336;2022-08-19T03:43:14;11.43;;;7.50;;
1471;SDS011;963;42.644;23.336;2022-08-19T03:45:42;12.77;;;7.60;;
1471;SDS011;963;42.644;23.336;2022-08-19T03:48:08;10.70;;;8.00;;
1471;SDS011;963;42.644;23.336;2022-08-19T03:50:38;8.97;;;7.23;;
1471;SDS011;963;42.644;23.336;2022-08-19T03:53:04;9.00;;;7.20;;
1471;SDS011;963;42.644;23.336;2022-08-19T03:55:29;11.17;;;7.60;;
1471;SDS011;963;42.644;23.336;2022-08-19T03:57:55;12.40;;;7.93;;
1471;SDS011;963;42.644;23.336;2022-08-19T04:00:21;8.47;;;7.60;;
1471;SDS011;963;42.644;23.336;2022-08-19T04:02:46;9.33;;;7.10;;
1471;SDS011;963;42.644;23.336;2022-08-19T04:05:12;7.50;;;6.67;;
1471;SDS011;963;42.644;23.336;2022-08-19T04:07:39;11.90;;;7.33;;
1471;SDS011;963;42.644;23.336;2022-08-19T04:10:04;8.93;;;7.00;;
1471;SDS011;963;42.644;23.336;2022-08-19T04:12:30;9.10;;;7.40;;
1471;SDS011;963;42.644;23.336;2022-08-19T04:14:56;9.93;;;8.37;;
1471;SDS011;963;42.644;23.336;2022-08-19T04:17:23;9.63;;;8.40;;
1471;SDS011;963;42.644;23.336;2022-08-19T04:19:48;9.60;;;7.00;;
1471;SDS011;963;42.644;23.336;2022-08-19T04:22:14;10.20;;;7.47;;
1471;SDS011;963;42.644;23.336;2022-08-19T04:24:39;10.20;;;8.50;;
1471;SDS011;963;42.644;23.336;2022-08-19T04:27:05;12.53;;;8.20;;
1471;SDS011;963;42.644;23.336;2022-08-19T04:29:31;10.10;;;9.10;;
1471;SDS011;963;42.644;23.336;2022-08-19T04:31:57;9.67;;;8.47;;
1471;SDS011;963;42.644;23.336;2022-08-19T04:34:24;8.60;;;7.70;;
1471;SDS011;963;42.644;23.336;2022-08-19T04:36:51;21.43;;;17.50;;
1471;SDS011;963;42.644;23.336;2022-08-19T04:39:23;11.50;;;9.40;;
1471;SDS011;963;42.644;23.336;2022-08-19T04:42:11;11.83;;;7.97;;
1471;SDS011;963;42.644;23.336;2022-08-19T04:44:55;12.67;;;8.83;;
1471;SDS011;963;42.644;23.336;2022-08-19T04:47:21;15.40;;;8.60;;
1471;SDS011;963;42.644;23.336;2022-08-19T04:49:47;11.83;;;9.30;;
1471;SDS011;963;42.644;23.336;2022-08-19T04:52:13;10.80;;;9.07;;
1471;SDS011;963;42.644;23.336;2022-08-19T04:54:39;10.33;;;8.00;;
1471;SDS011;963;42.644;23.336;2022-08-19T04:57:05;11.23;;;7.67;;
1471;SDS011;963;42.644;23.336;2022-08-19T04:59:34;14.13;;;7.93;;
1471;SDS011;963;42.644;23.336;2022-08-19T05:02:01;15.43;;;10.90;;
1471;SDS011;963;42.644;23.336;2022-08-19T05:04:26;13.53;;;10.30;;
1471;SDS011;963;42.644;23.336;2022-08-19T05:06:53;12.97;;;8.57;;
1471;SDS011;963;42.644;23.336;2022-08-19T05:09:19;10.93;;;8.23;;
1471;SDS011;963;42.644;23.336;2022-08-19T05:11:46;10.07;;;8.37;;
1471;SDS011;963;42.644;23.336;2022-08-19T05:14:11;12.20;;;8.70;;
1471;SDS011;963;42.644;23.336;2022-08-19T05:16:40;11.30;;;8.77;;
1471;SDS011;963;42.644;23.336;2022-08-19T05:19:05;11.70;;;9.07;;
1471;SDS011;963;42.644;23.336;2022-08-19T05:21:50;12.83;;;9.17;;
1471;SDS011;963;42.644;23.336;2022-08-19T05:24:44;9.70;;;8.40;;
1471;SDS011;963;42.644;23.336;2022-08-19T05:27:10;12.43;;;8.77;;
1471;SDS011;963;42.644;23.336;2022-08-19T05:29:35;10.83;;;8.50;;
1471;SDS011;963;42.644;23.336;2022-08-19T05:32:02;15.33;;;9.47;;
1471;SDS011;963;42.644;23.336;2022-08-19T05:34:30;11.47;;;9.10;;
1471;SDS011;963;42.644;23.336;2022-08-19T05:36:58;11.77;;;8.40;;
1471;SDS011;963;42.644;23.336;2022-08-19T05:39:25;16.30;;;8.67;;
1471;SDS011;963;42.644;23.336;2022-08-19T05:41:55;16.50;;;8.63;;
1471;SDS011;963;42.644;23.336;2022-08-19T05:44:23;14.67;;;9.30;;
1471;SDS011;963;42.644;23.336;2022-08-19T05:46:56;11.90;;;8.27;;
1471;SDS011;963;42.644;23.336;2022-08-19T05:49:23;13.40;;;8.10;;
1471;SDS011;963;42.644;23.336;2022-08-19T05:51:50;10.30;;;8.37;;
1471;SDS011;963;42.644;23.336;2022-08-19T05:54:16;12.63;;;10.60;;
1471;SDS011;963;42.644;23.336;2022-08-19T05:56:42;14.07;;;10.00;;
1471;SDS011;963;42.644;23.336;2022-08-19T05:59:09;10.03;;;8.67;;
1471;SDS011;963;42.644;23.336;2022-08-19T06:01:40;10.43;;;8.30;;
1471;SDS011;963;42.644;23.336;2022-08-19T06:04:07;9.60;;;7.83;;
1471;SDS011;963;42.644;23.336;2022-08-19T06:06:33;9.57;;;8.20;;
1471;SDS011;963;42.644;23.336;2022-08-19T06:09:03;10.37;;;7.20;;
1471;SDS011;963;42.644;23.336;2022-08-19T06:14:13;15.53;;;8.03;;
1471;SDS011;963;42.644;23.336;2022-08-19T06:16:43;11.60;;;7.63;;
1471;SDS011;963;42.644;23.336;2022-08-19T06:19:11;9.83;;;8.67;;
1471;SDS011;963;42.644;23.336;2022-08-19T06:21:39;12.67;;;7.53;;
1471;SDS011;963;42.644;23.336;2022-08-19T06:24:07;12.53;;;7.87;;
1471;SDS011;963;42.644;23.336;2022-08-19T06:26:35;12.00;;;7.70;;
1471;SDS011;963;42.644;23.336;2022-08-19T06:29:03;10.87;;;9.37;;
1471;SDS011;963;42.644;23.336;2022-08-19T06:31:33;19.97;;;9.00;;
1471;SDS011;963;42.644;23.336;2022-08-19T06:34:00;9.67;;;7.80;;
1471;SDS011;963;42.644;23.336;2022-08-19T06:36:33;10.97;;;7.90;;
1471;SDS011;963;42.644;23.336;2022-08-19T06:39:14;19.63;;;9.00;;
1471;SDS011;963;42.644;23.336;2022-08-19T06:41:43;12.43;;;8.23;;
1471;SDS011;963;42.644;23.336;2022-08-19T06:44:10;10.27;;;8.47;;
1471;SDS011;963;42.644;23.336;2022-08-19T06:46:37;15.03;;;8.50;;
1471;SDS011;963;42.644;23.336;2022-08-19T06:49:03;10.83;;;7.83;;
1471;SDS011;963;42.644;23.336;2022-08-19T06:51:29;11.63;;;7.10;;
1471;SDS011;963;42.644;23.336;2022-08-19T06:53:57;11.70;;;7.80;;
1471;SDS011;963;42.644;23.336;2022-08-19T06:56:24;10.77;;;7.57;;
1471;SDS011;963;42.644;23.336;2022-08-19T06:58:59;8.50;;;7.37;;
1471;SDS011;963;42.644;23.336;2022-08-19T07:01:25;16.97;;;9.57;;
1471;SDS011;963;42.644;23.336;2022-08-19T07:03:51;14.73;;;8.23;;
1471;SDS011;963;42.644;23.336;2022-08-19T07:06:17;12.80;;;9.80;;
1471;SDS011;963;42.644;23.336;2022-08-19T07:08:45;9.53;;;7.70;;
1471;SDS011;963;42.644;23.336;2022-08-19T07:11:12;10.23;;;7.80;;
1471;SDS011;963;42.644;23.336;2022-08-19T07:13:40;8.37;;;7.57;;
1471;SDS011;963;42.644;23.336;2022-08-19T07:16:10;13.90;;;8.20;;
1471;SDS011;963;42.644;23.336;2022-08-19T07:18:40;9.03;;;7.73;;
1471;SDS011;963;42.644;23.336;2022-08-19T07:21:06;8.90;;;7.10;;
1471;SDS011;963;42.644;23.336;2022-08-19T07:23:34;8.40;;;7.60;;
1471;SDS011;963;42.644;23.336;2022-08-19T07:26:06;7.80;;;7.00;;
1471;SDS011;963;42.644;23.336;2022-08-19T07:28:34;10.97;;;7.40;;
1471;SDS011;963;42.644;23.336;2022-08-19T07:31:00;9.33;;;8.20;;
1471;SDS011;963;42.644;23.336;2022-08-19T07:33:28;8.53;;;7.53;;
1471;SDS011;963;42.644;23.336;2022-08-19T07:35:57;9.77;;;7.50;;
1471;SDS011;963;42.644;23.336;2022-08-19T07:38:22;11.40;;;7.20;;
1471;SDS011;963;42.644;23.336;2022-08-19T07:40:48;10.30;;;8.13;;
1471;SDS011;963;42.644;23.336;2022-08-19T07:43:13;9.50;;;7.87;;
1471;SDS011;963;42.644;23.336;2022-08-19T07:45:40;14.63;;;8.77;;
1471;SDS011;963;42.644;23.336;2022-08-19T07:48:05;9.70;;;7.63;;
1471;SDS011;963;42.644;23.336;2022-08-19T07:50:31;11.07;;;7.90;;
1471;SDS011;963;42.644;23.336;2022-08-19T07:52:56;9.70;;;7.63;;
1471;SDS011;963;42.644;23.336;2022-08-19T07:55:23;12.07;;;7.80;;
1471;SDS011;963;42.644;23.336;2022-08-19T07:57:50;11.80;;;7.97;;
1471;SDS011;963;42.644;23.336;2022-08-19T08:00:17;17.23;;;8.97;;
1471;SDS011;963;42.644;23.336;2022-08-19T08:02:43;12.77;;;7.40;;
1471;SDS011;963;42.644;23.336;2022-08-19T08:05:09;22.73;;;10.17;;
1471;SDS011;963;42.644;23.336;2022-08-19T08:07:53;15.63;;;8.73;;
1471;SDS011;963;42.644;23.336;2022-08-19T08:10:37;9.90;;;7.00;;
1471;SDS011;963;42.644;23.336;2022-08-19T08:13:03;12.07;;;7.67;;
1471;SDS011;963;42.644;23.336;2022-08-19T08:15:30;8.83;;;7.47;;
1471;SDS011;963;42.644;23.336;2022-08-19T08:17:56;8.93;;;7.20;;
1471;SDS011;963;42.644;23.336;2022-08-19T08:20:22;11.20;;;6.80;;
1471;SDS011;963;42.644;23.336;2022-08-19T08:22:48;9.13;;;7.07;;
1471;SDS011;963;42.644;23.336;2022-08-19T08:25:32;42.87;;;12.47;;
1471;SDS011;963;42.644;23.336;2022-08-19T08:28:00;14.43;;;7.37;;
1471;SDS011;963;42.644;23.336;2022-08-19T08:30:27;10.00;;;6.40;;
1471;SDS011;963;42.644;23.336;2022-08-19T08:32:55;16.60;;;7.77;;
1471;SDS011;963;42.644;23.336;2022-08-19T08:35:21;20.83;;;9.40;;
1471;SDS011;963;42.644;23.336;2022-08-19T08:37:48;16.10;;;7.07;;
1471;SDS011;963;42.644;23.336;2022-08-19T08:42:43;17.50;;;7.60;;
1471;SDS011;963;42.644;23.336;2022-08-19T08:45:16;8.97;;;6.43;;
1471;SDS011;963;42.644;23.336;2022-08-19T08:47:44;8.40;;;6.20;;
1471;SDS011;963;42.644;23.336;2022-08-19T08:50:16;9.17;;;6.50;;
1471;SDS011;963;42.644;23.336;2022-08-19T08:52:47;6.80;;;5.30;;
1471;SDS011;963;42.644;23.336;2022-08-19T08:55:17;9.73;;;4.97;;
1471;SDS011;963;42.644;23.336;2022-08-19T09:00:19;9.50;;;7.97;;
1471;SDS011;963;42.644;23.336;2022-08-19T09:02:51;9.80;;;5.17;;
1471;SDS011;963;42.644;23.336;2022-08-19T09:05:18;10.20;;;5.00;;
1471;SDS011;963;42.644;23.336;2022-08-19T09:07:52;6.73;;;4.87;;
1471;SDS011;963;42.644;23.336;2022-08-19T09:15:40;8.40;;;5.10;;
1471;SDS011;963;42.644;23.336;2022-08-19T09:18:10;6.23;;;5.00;;
1471;SDS011;963;42.644;23.336;2022-08-19T09:20:36;8.20;;;4.60;;
1471;SDS011;963;42.644;23.336;2022-08-19T09:23:02;5.00;;;4.33;;
1471;SDS011;963;42.644;23.336;2022-08-19T09:25:28;5.43;;;4.67;;
1471;SDS011;963;42.644;23.336;2022-08-19T09:27:55;4.63;;;4.20;;
1471;SDS011;963;42.644;23.336;2022-08-19T09:30:24;7.40;;;4.30;;
1471;SDS011;963;42.644;23.336;2022-08-19T09:32:52;7.57;;;3.63;;
1471;SDS011;963;42.644;23.336;2022-08-19T09:35:19;6.40;;;4.47;;
1471;SDS011;963;42.644;23.336;2022-08-19T09:37:49;5.30;;;4.80;;
1471;SDS011;963;42.644;23.336;2022-08-19T09:40:15;6.17;;;4.67;;
1471;SDS011;963;42.644;23.336;2022-08-19T09:42:43;5.57;;;4.80;;
1471;SDS011;963;42.644;23.336;2022-08-19T09:45:11;6.40;;;4.90;;
1471;SDS011;963;42.644;23.336;2022-08-19T09:47:36;13.47;;;5.03;;
1471;SDS011;963;42.644;23.336;2022-08-19T09:50:04;9.63;;;4.73;;
1471;SDS011;963;42.644;23.336;2022-08-19T09:52:31;5.27;;;4.27;;
1471;SDS011;963;42.644;23.336;2022-08-19T09:54:56;4.30;;;3.90;;
1471;SDS011;963;42.644;23.336;2022-08-19T09:57:22;5.80;;;4.23;;
1471;SDS011;963;42.644;23.336;2022-08-19T09:59:47;16.70;;;5.90;;
1471;SDS011;963;42.644;23.336;2022-08-19T10:02:13;33.57;;;7.03;;
1471;SDS011;963;42.644;23.336;2022-08-19T10:04:39;11.50;;;5.00;;
1471;SDS011;963;42.644;23.336;2022-08-19T10:07:22;7.13;;;4.53;;
1471;SDS011;963;42.644;23.336;2022-08-19T10:09:48;5.13;;;4.60;;
1471;SDS011;963;42.644;23.336;2022-08-19T10:12:13;6.13;;;4.30;;
1471;SDS011;963;42.644;23.336;2022-08-19T10:14:40;5.67;;;4.40;;
1471;SDS011;963;42.644;23.336;2022-08-19T10:17:06;4.93;;;4.20;;
1471;SDS011;963;42.644;23.336;2022-08-19T10:19:31;6.77;;;4.70;;
1471;SDS011;963;42.644;23.336;2022-08-19T10:22:02;18.30;;;6.30;;
1471;SDS011;963;42.644;23.336;2022-08-19T10:24:30;11.30;;;4.90;;
1471;SDS011;963;42.644;23.336;2022-08-19T10:26:56;6.40;;;4.77;;
1471;SDS011;963;42.644;23.336;2022-08-19T10:29:22;10.23;;;4.90;;
1471;SDS011;963;42.644;23.336;2022-08-19T10:31:48;12.03;;;5.20;;
1471;SDS011;963;42.644;23.336;2022-08-19T10:34:13;12.27;;;4.80;;
1471;SDS011;963;42.644;23.336;2022-08-19T10:36:39;4.80;;;4.40;;
1471;SDS011;963;42.644;23.336;2022-08-19T10:39:05;6.23;;;4.80;;
1471;SDS011;963;42.644;23.336;2022-08-19T10:41:33;8.07;;;4.90;;
1471;SDS011;963;42.644;23.336;2022-08-19T10:44:02;5.57;;;5.07;;
1471;SDS011;963;42.644;23.336;2022-08-19T10:46:30;8.03;;;5.63;;
1471;SDS011;963;42.644;23.336;2022-08-19T10:48:57;8.43;;;4.43;;
1471;SDS011;963;42.644;23.336;2022-08-19T10:51:24;9.60;;;5.60;;
1471;SDS011;963;42.644;23.336;2022-08-19T10:54:08;7.20;;;4.90;;
1471;SDS011;963;42.644;23.336;2022-08-19T10:56:33;5.60;;;4.67;;
1471;SDS011;963;42.644;23.336;2022-08-19T10:59:21;5.63;;;5.13;;
1471;SDS011;963;42.644;23.336;2022-08-19T11:01:49;6.10;;;4.80;;
1471;SDS011;963;42.644;23.336;2022-08-19T11:04:16;4.80;;;4.40;;
1471;SDS011;963;42.644;23.336;2022-08-19T11:06:46;8.23;;;4.80;;
1471;SDS011;963;42.644;23.336;2022-08-19T11:09:14;8.10;;;4.90;;
1471;SDS011;963;42.644;23.336;2022-08-19T11:11:41;5.67;;;5.17;;
1471;SDS011;963;42.644;23.336;2022-08-19T11:14:08;13.73;;;5.33;;
1471;SDS011;963;42.644;23.336;2022-08-19T11:16:35;5.00;;;4.57;;
1471;SDS011;963;42.644;23.336;2022-08-19T11:19:04;5.07;;;4.07;;
1471;SDS011;963;42.644;23.336;2022-08-19T11:21:33;7.03;;;6.33;;
1471;SDS011;963;42.644;23.336;2022-08-19T11:24:01;9.70;;;4.90;;
1471;SDS011;963;42.644;23.336;2022-08-19T11:26:29;5.17;;;4.53;;
1471;SDS011;963;42.644;23.336;2022-08-19T11:28:56;8.50;;;5.80;;
1471;SDS011;963;42.644;23.336;2022-08-19T11:31:24;5.53;;;4.70;;
1471;SDS011;963;42.644;23.336;2022-08-19T11:33:51;5.50;;;4.30;;
1471;SDS011;963;42.644;23.336;2022-08-19T11:36:18;6.27;;;5.00;;
1471;SDS011;963;42.644;23.336;2022-08-19T11:38:46;7.50;;;6.23;;
1471;SDS011;963;42.644;23.336;2022-08-19T11:41:14;5.27;;;4.50;;
1471;SDS011;963;42.644;23.336;2022-08-19T11:43:41;5.27;;;4.30;;
1471;SDS011;963;42.644;23.336;2022-08-19T11:46:08;5.00;;;4.20;;
1471;SDS011;963;42.644;23.336;2022-08-19T11:48:36;4.97;;;4.47;;
1471;SDS011;963;42.644;23.336;2022-08-19T11:51:06;5.70;;;4.30;;
1471;SDS011;963;42.644;23.336;2022-08-19T11:53:34;7.83;;;5.50;;
1471;SDS011;963;42.644;23.336;2022-08-19T11:56:00;6.33;;;5.73;;
1471;SDS011;963;42.644;23.336;2022-08-19T11:58:26;7.20;;;4.43;;
1471;SDS011;963;42.644;23.336;2022-08-19T12:00:51;5.63;;;5.13;;
1471;SDS011;963;42.644;23.336;2022-08-19T12:03:18;5.80;;;4.87;;
1471;SDS011;963;42.644;23.336;2022-08-19T12:05:44;7.70;;;5.67;;
1471;SDS011;963;42.644;23.336;2022-08-19T12:08:10;6.87;;;5.00;;
1471;SDS011;963;42.644;23.336;2022-08-19T12:10:38;5.20;;;4.50;;
1471;SDS011;963;42.644;23.336;2022-08-19T12:13:04;13.60;;;7.07;;
1471;SDS011;963;42.644;23.336;2022-08-19T12:15:29;4.67;;;4.23;;
1471;SDS011;963;42.644;23.336;2022-08-19T12:17:55;6.17;;;4.23;;
1471;SDS011;963;42.644;23.336;2022-08-19T12:20:22;5.10;;;4.60;;
1471;SDS011;963;42.644;23.336;2022-08-19T12:22:48;7.67;;;5.03;;
1471;SDS011;963;42.644;23.336;2022-08-19T12:25:14;9.10;;;6.27;;
1471;SDS011;963;42.644;23.336;2022-08-19T12:27:40;5.17;;;4.67;;
1471;SDS011;963;42.644;23.336;2022-08-19T12:30:06;8.80;;;4.83;;
1471;SDS011;963;42.644;23.336;2022-08-19T12:32:34;4.77;;;4.37;;
1471;SDS011;963;42.644;23.336;2022-08-19T12:35:00;5.10;;;4.60;;
1471;SDS011;963;42.644;23.336;2022-08-19T12:37:26;7.43;;;4.53;;
1471;SDS011;963;42.644;23.336;2022-08-19T12:39:53;5.37;;;4.80;;
1471;SDS011;963;42.644;23.336;2022-08-19T12:42:19;7.40;;;4.70;;
1471;SDS011;963;42.644;23.336;2022-08-19T12:44:46;6.20;;;4.70;;
1471;SDS011;963;42.644;23.336;2022-08-19T12:47:12;4.43;;;3.87;;
1471;SDS011;963;42.644;23.336;2022-08-19T12:49:41;4.70;;;4.30;;
1471;SDS011;963;42.644;23.336;2022-08-19T12:52:09;11.03;;;4.90;;
1471;SDS011;963;42.644;23.336;2022-08-19T12:54:35;9.80;;;5.10;;
1471;SDS011;963;42.644;23.336;2022-08-19T12:57:09;12.80;;;4.87;;
1471;SDS011;963;42.644;23.336;2022-08-19T12:59:35;5.30;;;4.80;;
1471;SDS011;963;42.644;23.336;2022-08-19T13:02:05;10.10;;;4.77;;
1471;SDS011;963;42.644;23.336;2022-08-19T13:04:32;11.00;;;5.10;;
1471;SDS011;963;42.644;23.336;2022-08-19T13:07:05;5.90;;;4.77;;
1471;SDS011;963;42.644;23.336;2022-08-19T13:09:32;4.63;;;4.13;;
1471;SDS011;963;42.644;23.336;2022-08-19T13:11:58;7.00;;;4.93;;
1471;SDS011;963;42.644;23.336;2022-08-19T13:14:27;4.87;;;4.43;;
1471;SDS011;963;42.644;23.336;2022-08-19T13:16:55;7.03;;;4.10;;
1471;SDS011;963;42.644;23.336;2022-08-19T13:19:20;5.67;;;4.27;;
1471;SDS011;963;42.644;23.336;2022-08-19T13:21:51;4.50;;;4.10;;
1471;SDS011;963;42.644;23.336;2022-08-19T13:24:17;4.70;;;4.17;;
1471;SDS011;963;42.644;23.336;2022-08-19T13:26:43;6.67;;;5.10;;
1471;SDS011;963;42.644;23.336;2022-08-19T13:29:08;5.30;;;4.40;;
1471;SDS011;963;42.644;23.336;2022-08-19T13:31:52;4.73;;;4.33;;
1471;SDS011;963;42.644;23.336;2022-08-19T13:34:36;6.53;;;5.40;;
1471;SDS011;963;42.644;23.336;2022-08-19T13:37:02;6.20;;;4.77;;
1471;SDS011;963;42.644;23.336;2022-08-19T13:39:29;7.73;;;4.80;;
1471;SDS011;963;42.644;23.336;2022-08-19T13:41:55;4.97;;;4.33;;
1471;SDS011;963;42.644;23.336;2022-08-19T13:44:21;8.67;;;4.80;;
1471;SDS011;963;42.644;23.336;2022-08-19T13:46:47;7.00;;;4.90;;
1471;SDS011;963;42.644;23.336;2022-08-19T13:49:14;6.83;;;4.23;;
1471;SDS011;963;42.644;23.336;2022-08-19T13:51:41;6.17;;;4.40;;
1471;SDS011;963;42.644;23.336;2022-08-19T13:54:10;7.80;;;4.00;;
1471;SDS011;963;42.644;23.336;2022-08-19T13:56:40;7.23;;;4.97;;
1471;SDS011;963;42.644;23.336;2022-08-19T13:59:06;5.03;;;4.53;;
1471;SDS011;963;42.644;23.336;2022-08-19T14:01:32;5.53;;;4.77;;
1471;SDS011;963;42.644;23.336;2022-08-19T14:03:57;5.30;;;4.27;;
1471;SDS011;963;42.644;23.336;2022-08-19T14:06:23;5.30;;;4.80;;
1471;SDS011;963;42.644;23.336;2022-08-19T14:08:48;5.70;;;4.80;;
1471;SDS011;963;42.644;23.336;2022-08-19T14:11:14;5.90;;;4.77;;
1471;SDS011;963;42.644;23.336;2022-08-19T14:13:39;6.37;;;4.47;;
1471;SDS011;963;42.644;23.336;2022-08-19T14:16:09;6.50;;;5.00;;
1471;SDS011;963;42.644;23.336;2022-08-19T14:18:36;6.10;;;5.10;;
1471;SDS011;963;42.644;23.336;2022-08-19T14:21:02;6.53;;;5.00;;
1471;SDS011;963;42.644;23.336;2022-08-19T14:23:29;6.10;;;5.50;;
1471;SDS011;963;42.644;23.336;2022-08-19T14:26:02;5.40;;;4.30;;
1471;SDS011;963;42.644;23.336;2022-08-19T14:28:32;6.33;;;5.40;;
1471;SDS011;963;42.644;23.336;2022-08-19T14:30:58;5.33;;;4.83;;
1471;SDS011;963;42.644;23.336;2022-08-19T14:33:24;8.30;;;5.50;;
1471;SDS011;963;42.644;23.336;2022-08-19T14:35:49;8.07;;;5.57;;
1471;SDS011;963;42.644;23.336;2022-08-19T14:38:16;7.10;;;4.70;;
1471;SDS011;963;42.644;23.336;2022-08-19T14:40:43;5.50;;;5.00;;
1471;SDS011;963;42.644;23.336;2022-08-19T14:43:08;7.77;;;4.83;;
1471;SDS011;963;42.644;23.336;2022-08-19T14:45:35;6.97;;;4.60;;
1471;SDS011;963;42.644;23.336;2022-08-19T14:48:02;5.33;;;4.83;;
1471;SDS011;963;42.644;23.336;2022-08-19T14:50:29;5.37;;;4.90;;
1471;SDS011;963;42.644;23.336;2022-08-19T14:52:59;6.37;;;4.60;;
1471;SDS011;963;42.644;23.336;2022-08-19T14:55:29;5.40;;;4.90;;
1471;SDS011;963;42.644;23.336;2022-08-19T14:57:54;7.07;;;4.80;;
1471;SDS011;963;42.644;23.336;2022-08-19T15:00:20;5.80;;;5.17;;
1471;SDS011;963;42.644;23.336;2022-08-19T15:02:47;6.20;;;5.40;;
1471;SDS011;963;42.644;23.336;2022-08-19T15:05:13;7.80;;;5.13;;
1471;SDS011;963;42.644;23.336;2022-08-19T15:07:39;6.87;;;5.30;;
1471;SDS011;963;42.644;23.336;2022-08-19T15:10:05;6.03;;;4.97;;
1471;SDS011;963;42.644;23.336;2022-08-19T15:12:33;5.30;;;4.83;;
1471;SDS011;963;42.644;23.336;2022-08-19T15:15:00;5.90;;;5.30;;
1471;SDS011;963;42.644;23.336;2022-08-19T15:17:25;9.90;;;5.37;;
1471;SDS011;963;42.644;23.336;2022-08-19T15:19:51;6.87;;;5.00;;
1471;SDS011;963;42.644;23.336;2022-08-19T15:22:17;5.70;;;5.13;;
1471;SDS011;963;42.644;23.336;2022-08-19T15:24:42;5.93;;;5.43;;
1471;SDS011;963;42.644;23.336;2022-08-19T15:27:11;7.40;;;5.70;;
1471;SDS011;963;42.644;23.336;2022-08-19T15:29:38;8.80;;;5.57;;